sensor_id;sensor_type;location;lat;lon;timestamp;pressure;altitude;pressure_sealevel;temperature;humidity
68366;BME280;55283;51.466;5.478;2023-03-22T00:00:54;100849.13;;;20.87;47.02
68366;BME280;55283;51.466;5.478;2023-03-22T00:03:24;100855.63;;;20.84;46.95
68366;BME280;55283;51.466;5.478;2023-03-22T00:05:56;100846.44;;;20.83;46.97
68366;BME280;55283;51.466;5.478;2023-03-22T00:08:24;100844.84;;;20.82;47.11
68366;BME280;55283;51.466;5.478;2023-03-22T00:10:50;100846.88;;;20.82;47.05
68366;BME280;55283;51.466;5.478;2023-03-22T00:13:15;100844.72;;;20.86;47.09
68366;BME280;55283;51.466;5.478;2023-03-22T00:15:42;100839.59;;;20.84;47.08
68366;BME280;55283;51.466;5.478;2023-03-22T00:18:10;100840.47;;;20.81;47.07
68366;BME280;55283;51.466;5.478;2023-03-22T00:20:36;100834.88;;;20.81;47.20
68366;BME280;55283;51.466;5.478;2023-03-22T00:23:03;100827.69;;;20.80;47.00
68366;BME280;55283;51.466;5.478;2023-03-22T00:25:29;100834.88;;;20.81;46.93
68366;BME280;55283;51.466;5.478;2023-03-22T00:27:55;100821.31;;;20.79;47.03
68366;BME280;55283;51.466;5.478;2023-03-22T00:30:20;100817.59;;;20.83;47.06
68366;BME280;55283;51.466;5.478;2023-03-22T00:32:46;100812.47;;;20.81;46.92
68366;BME280;55283;51.466;5.478;2023-03-22T00:35:11;100813.25;;;20.82;47.00
68366;BME280;55283;51.466;5.478;2023-03-22T00:37:37;100811.75;;;20.77;47.14
68366;BME280;55283;51.466;5.478;2023-03-22T00:40:09;100806.16;;;20.77;47.13
68366;BME280;55283;51.466;5.478;2023-03-22T00:42:38;100796.53;;;20.78;47.02
68366;BME280;55283;51.466;5.478;2023-03-22T00:45:05;100796.66;;;20.74;47.16
68366;BME280;55283;51.466;5.478;2023-03-22T00:47:34;100794.19;;;20.76;47.13
68366;BME280;55283;51.466;5.478;2023-03-22T00:50:00;100791.06;;;20.74;47.04
68366;BME280;55283;51.466;5.478;2023-03-22T00:52:26;100793.41;;;20.76;47.07
68366;BME280;55283;51.466;5.478;2023-03-22T00:54:53;100789.13;;;20.71;47.14
68366;BME280;55283;51.466;5.478;2023-03-22T00:57:18;100780.63;;;20.75;47.04
68366;BME280;55283;51.466;5.478;2023-03-22T00:59:50;100782.97;;;20.76;46.94
68366;BME280;55283;51.466;5.478;2023-03-22T01:02:20;100772.31;;;20.71;46.85
68366;BME280;55283;51.466;5.478;2023-03-22T01:04:54;100766.28;;;20.73;47.25
68366;BME280;55283;51.466;5.478;2023-03-22T01:07:22;100766.28;;;20.73;47.06
68366;BME280;55283;51.466;5.478;2023-03-22T01:09:48;100761.56;;;20.70;46.99
68366;BME280;55283;51.466;5.478;2023-03-22T01:12:18;100763.59;;;20.69;47.02
68366;BME280;55283;51.466;5.478;2023-03-22T01:14:44;100761.91;;;20.72;47.04
68366;BME280;55283;51.466;5.478;2023-03-22T01:17:09;100758.22;;;20.75;47.19
68366;BME280;55283;51.466;5.478;2023-03-22T01:19:36;100758.66;;;20.73;47.12
68366;BME280;55283;51.466;5.478;2023-03-22T01:22:05;100759.91;;;20.72;46.98
68366;BME280;55283;51.466;5.478;2023-03-22T01:24:30;100747.91;;;20.72;47.05
68366;BME280;55283;51.466;5.478;2023-03-22T01:26:56;100735.47;;;20.73;47.10
68366;BME280;55283;51.466;5.478;2023-03-22T01:29:23;100727.94;;;20.70;47.06
68366;BME280;55283;51.466;5.478;2023-03-22T01:31:51;100723.91;;;20.71;46.94
68366;BME280;55283;51.466;5.478;2023-03-22T01:34:17;100716.63;;;20.73;47.02
68366;BME280;55283;51.466;5.478;2023-03-22T01:36:42;100704.66;;;20.73;46.99
68366;BME280;55283;51.466;5.478;2023-03-22T01:39:10;100703.09;;;20.72;47.04
68366;BME280;55283;51.466;5.478;2023-03-22T01:41:39;100701.50;;;20.71;46.92
68366;BME280;55283;51.466;5.478;2023-03-22T01:44:14;100683.13;;;20.70;46.88
68366;BME280;55283;51.466;5.478;2023-03-22T01:46:44;100690.31;;;20.71;46.94
68366;BME280;55283;51.466;5.478;2023-03-22T01:51:47;100681.91;;;20.71;47.21
68366;BME280;55283;51.466;5.478;2023-03-22T01:54:20;100675.84;;;20.72;46.92
68366;BME280;55283;51.466;5.478;2023-03-22T01:56:49;100669.47;;;20.72;46.84
68366;BME280;55283;51.466;5.478;2023-03-22T01:59:18;100673.50;;;20.71;46.99
68366;BME280;55283;51.466;5.478;2023-03-22T02:01:43;100671.03;;;20.73;46.89
68366;BME280;55283;51.466;5.478;2023-03-22T02:04:15;100670.69;;;20.71;47.06
68366;BME280;55283;51.466;5.478;2023-03-22T02:06:41;100658.72;;;20.70;47.03
68366;BME280;55283;51.466;5.478;2023-03-22T02:09:10;100650.44;;;20.67;47.00
68366;BME280;55283;51.466;5.478;2023-03-22T02:11:38;100649.53;;;20.70;46.88
68366;BME280;55283;51.466;5.478;2023-03-22T02:15:10;100657.34;;;20.62;47.17
68366;BME280;55283;51.466;5.478;2023-03-22T02:17:28;100657.34;;;20.62;47.02
68366;BME280;55283;51.466;5.478;2023-03-22T02:23:17;100644.59;;;20.61;47.14
68366;BME280;55283;51.466;5.478;2023-03-22T02:28:41;100651.31;;;20.64;47.11
68366;BME280;55283;51.466;5.478;2023-03-22T02:39:37;100632.63;;;20.61;46.96
68366;BME280;55283;51.466;5.478;2023-03-22T02:42:14;100633.81;;;20.60;47.01
68366;BME280;55283;51.466;5.478;2023-03-22T02:50:01;100633.75;;;20.63;46.89
68366;BME280;55283;51.466;5.478;2023-03-22T02:55:14;100624.53;;;20.63;46.95
68366;BME280;55283;51.466;5.478;2023-03-22T03:00:18;100621.63;;;20.66;46.89
68366;BME280;55283;51.466;5.478;2023-03-22T03:02:49;100620.03;;;20.65;47.07
68366;BME280;55283;51.466;5.478;2023-03-22T03:05:17;100617.72;;;20.64;46.77
68366;BME280;55283;51.466;5.478;2023-03-22T03:07:47;100605.25;;;20.65;46.98
68366;BME280;55283;51.466;5.478;2023-03-22T03:10:18;100611.34;;;20.63;46.89
68366;BME280;55283;51.466;5.478;2023-03-22T03:12:44;100603.72;;;20.64;46.98
68366;BME280;55283;51.466;5.478;2023-03-22T03:15:15;100604.91;;;20.63;46.95
68366;BME280;55283;51.466;5.478;2023-03-22T03:18:07;100598.09;;;20.64;46.79
68366;BME280;55283;51.466;5.478;2023-03-22T03:20:55;100608.97;;;20.62;46.89
68366;BME280;55283;51.466;5.478;2023-03-22T03:26:51;100590.25;;;20.58;46.89
68366;BME280;55283;51.466;5.478;2023-03-22T03:35:13;100591.50;;;20.57;47.01
68366;BME280;55283;51.466;5.478;2023-03-22T03:37:52;100587.13;;;20.56;47.03
68366;BME280;55283;51.466;5.478;2023-03-22T03:40:46;100597.53;;;20.56;47.10
68366;BME280;55283;51.466;5.478;2023-03-22T03:43:13;100599.56;;;20.55;47.15
68366;BME280;55283;51.466;5.478;2023-03-22T03:45:39;100596.75;;;20.55;47.01
68366;BME280;55283;51.466;5.478;2023-03-22T03:48:12;100591.50;;;20.57;47.02
68366;BME280;55283;51.466;5.478;2023-03-22T03:50:45;100590.72;;;20.57;46.89
68366;BME280;55283;51.466;5.478;2023-03-22T03:53:11;100598.31;;;20.56;46.97
68366;BME280;55283;51.466;5.478;2023-03-22T03:55:37;100604.81;;;20.53;47.10
68366;BME280;55283;51.466;5.478;2023-03-22T03:58:04;100606.41;;;20.54;47.11
68366;BME280;55283;51.466;5.478;2023-03-22T04:00:38;100599.91;;;20.57;47.01
68366;BME280;55283;51.466;5.478;2023-03-22T04:03:04;100593.06;;;20.58;47.09
68366;BME280;55283;51.466;5.478;2023-03-22T04:05:30;100601.94;;;20.57;46.96
68366;BME280;55283;51.466;5.478;2023-03-22T04:07:55;100608.97;;;20.62;46.82
68366;BME280;55283;51.466;5.478;2023-03-22T04:10:20;100597.75;;;20.62;46.77
68366;BME280;55283;51.466;5.478;2023-03-22T04:12:48;100594.63;;;20.60;46.86
68366;BME280;55283;51.466;5.478;2023-03-22T04:15:14;100599.44;;;20.59;46.91
68366;BME280;55283;51.466;5.478;2023-03-22T04:17:40;100598.53;;;20.62;46.95
68366;BME280;55283;51.466;5.478;2023-03-22T04:20:06;100590.25;;;20.58;46.92
68366;BME280;55283;51.466;5.478;2023-03-22T04:22:35;100593.06;;;20.58;46.78
68366;BME280;55283;51.466;5.478;2023-03-22T04:25:06;100594.75;;;20.56;46.97
68366;BME280;55283;51.466;5.478;2023-03-22T04:27:39;100587.47;;;20.58;46.81
68366;BME280;55283;51.466;5.478;2023-03-22T04:30:08;100577.81;;;20.60;46.75
68366;BME280;55283;51.466;5.478;2023-03-22T04:32:35;100588.34;;;20.55;47.03
68366;BME280;55283;51.466;5.478;2023-03-22T04:35:01;100580.63;;;20.60;46.97
68366;BME280;55283;51.466;5.478;2023-03-22T04:37:27;100575.81;;;20.60;46.83
68366;BME280;55283;51.466;5.478;2023-03-22T04:39:52;100573.91;;;20.57;46.79
68366;BME280;55283;51.466;5.478;2023-03-22T04:42:18;100575.00;;;20.60;46.86
68366;BME280;55283;51.466;5.478;2023-03-22T04:44:44;100574.22;;;20.59;46.86
68366;BME280;55283;51.466;5.478;2023-03-22T04:47:09;100576.25;;;20.58;46.81
68366;BME280;55283;51.466;5.478;2023-03-22T04:49:35;100568.19;;;20.61;46.86
68366;BME280;55283;51.466;5.478;2023-03-22T04:52:03;100567.84;;;20.58;46.87
68366;BME280;55283;51.466;5.478;2023-03-22T04:54:28;100569.75;;;20.62;46.79
68366;BME280;55283;51.466;5.478;2023-03-22T04:56:54;100570.66;;;20.58;46.72
68366;BME280;55283;51.466;5.478;2023-03-22T04:59:20;100569.53;;;20.56;46.96
68366;BME280;55283;51.466;5.478;2023-03-22T05:01:49;100574.56;;;20.61;46.80
68366;BME280;55283;51.466;5.478;2023-03-22T05:04:16;100581.06;;;20.58;46.66
68366;BME280;55283;51.466;5.478;2023-03-22T05:06:42;100567.50;;;20.56;46.85
68366;BME280;55283;51.466;5.478;2023-03-22T05:09:08;100582.75;;;20.55;46.71
68366;BME280;55283;51.466;5.478;2023-03-22T05:11:34;100574.69;;;20.57;46.76
68366;BME280;55283;51.466;5.478;2023-03-22T05:14:00;100567.50;;;20.56;46.60
68366;BME280;55283;51.466;5.478;2023-03-22T05:16:28;100563.50;;;20.57;46.91
68366;BME280;55283;51.466;5.478;2023-03-22T05:18:56;100562.81;;;20.53;46.98
68366;BME280;55283;51.466;5.478;2023-03-22T05:21:23;100565.53;;;20.57;46.86
68366;BME280;55283;51.466;5.478;2023-03-22T05:24:03;100567.84;;;20.58;46.74
68366;BME280;55283;51.466;5.478;2023-03-22T05:26:29;100564.28;;;20.58;46.69
68366;BME280;55283;51.466;5.478;2023-03-22T05:28:58;100561.47;;;20.58;46.76
68366;BME280;55283;51.466;5.478;2023-03-22T05:31:23;100557.91;;;20.57;46.73
68366;BME280;55283;51.466;5.478;2023-03-22T05:33:50;100562.81;;;20.53;47.01
68366;BME280;55283;51.466;5.478;2023-03-22T05:36:17;100564.41;;;20.54;46.82
68366;BME280;55283;51.466;5.478;2023-03-22T05:38:43;100554.41;;;20.53;46.85
68366;BME280;55283;51.466;5.478;2023-03-22T05:41:12;100568.41;;;20.53;46.89
68366;BME280;55283;51.466;5.478;2023-03-22T05:43:38;100563.16;;;20.55;46.86
68366;BME280;55283;51.466;5.478;2023-03-22T05:46:05;100563.16;;;20.55;46.89
68366;BME280;55283;51.466;5.478;2023-03-22T05:48:31;100552.38;;;20.54;46.81
68366;BME280;55283;51.466;5.478;2023-03-22T05:50:56;100560.00;;;20.53;46.92
68366;BME280;55283;51.466;5.478;2023-03-22T05:53:24;100553.19;;;20.54;46.77
68366;BME280;55283;51.466;5.478;2023-03-22T05:55:49;100562.81;;;20.53;46.75
68366;BME280;55283;51.466;5.478;2023-03-22T05:58:17;100564.41;;;20.54;46.81
68366;BME280;55283;51.466;5.478;2023-03-22T06:00:44;100569.09;;;20.57;46.76
68366;BME280;55283;51.466;5.478;2023-03-22T06:03:09;100565.53;;;20.57;46.66
68366;BME280;55283;51.466;5.478;2023-03-22T06:05:34;100561.13;;;20.56;46.73
68366;BME280;55283;51.466;5.478;2023-03-22T06:08:03;100568.75;;;20.55;46.81
68366;BME280;55283;51.466;5.478;2023-03-22T06:10:28;100556.00;;;20.54;46.73
68366;BME280;55283;51.466;5.478;2023-03-22T06:12:54;100561.13;;;20.56;46.63
68366;BME280;55283;51.466;5.478;2023-03-22T06:15:20;100556.31;;;20.56;46.65
68366;BME280;55283;51.466;5.478;2023-03-22T06:17:46;100566.72;;;20.56;46.68
68366;BME280;55283;51.466;5.478;2023-03-22T06:20:12;100562.03;;;20.53;46.83
68366;BME280;55283;51.466;5.478;2023-03-22T06:22:41;100558.78;;;20.54;46.75
68366;BME280;55283;51.466;5.478;2023-03-22T06:25:09;100556.78;;;20.55;46.80
68366;BME280;55283;51.466;5.478;2023-03-22T06:27:35;100562.25;;;20.58;46.67
68366;BME280;55283;51.466;5.478;2023-03-22T06:30:03;100558.69;;;20.58;46.48
68366;BME280;55283;51.466;5.478;2023-03-22T06:32:31;100562.59;;;20.61;46.69
68366;BME280;55283;51.466;5.478;2023-03-22T06:34:56;100560.09;;;20.63;46.84
68366;BME280;55283;51.466;5.478;2023-03-22T06:37:24;100563.50;;;20.57;47.21
68366;BME280;55283;51.466;5.478;2023-03-22T06:39:49;100555.75;;;20.62;47.23
68366;BME280;55283;51.466;5.478;2023-03-22T06:42:16;100558.00;;;20.54;47.72
68366;BME280;55283;51.466;5.478;2023-03-22T06:44:41;100559.34;;;20.49;47.81
68366;BME280;55283;51.466;5.478;2023-03-22T06:47:09;100562.28;;;20.46;47.88
68366;BME280;55283;51.466;5.478;2023-03-22T06:49:36;100563.94;;;20.43;47.94
68366;BME280;55283;51.466;5.478;2023-03-22T06:52:01;100559.13;;;20.44;48.05
68366;BME280;55283;51.466;5.478;2023-03-22T06:54:27;100568.41;;;20.53;48.21
68366;BME280;55283;51.466;5.478;2023-03-22T06:56:53;100570.44;;;20.66;47.82
68366;BME280;55283;51.466;5.478;2023-03-22T06:59:18;100553.63;;;20.66;47.60
68366;BME280;55283;51.466;5.478;2023-03-22T07:01:44;100564.94;;;20.62;48.02
68366;BME280;55283;51.466;5.478;2023-03-22T07:04:09;100554.97;;;20.61;47.85
68366;BME280;55283;51.466;5.478;2023-03-22T07:06:35;100555.53;;;20.69;48.80
68366;BME280;55283;51.466;5.478;2023-03-22T07:09:00;100557.31;;;20.75;48.58
68366;BME280;55283;51.466;5.478;2023-03-22T07:11:26;100558.66;;;20.71;48.41
68366;BME280;55283;51.466;5.478;2023-03-22T07:13:55;100562.13;;;20.75;48.58
68366;BME280;55283;51.466;5.478;2023-03-22T07:16:21;100554.94;;;20.74;48.80
68366;BME280;55283;51.466;5.478;2023-03-22T07:18:46;100564.03;;;20.78;48.37
68366;BME280;55283;51.466;5.478;2023-03-22T07:21:12;100562.78;;;20.79;48.96
68366;BME280;55283;51.466;5.478;2023-03-22T07:23:38;100557.09;;;20.70;48.35
68366;BME280;55283;51.466;5.478;2023-03-22T07:26:03;100573.81;;;20.61;44.38
68366;BME280;55283;51.466;5.478;2023-03-22T07:28:31;100569.31;;;20.50;43.44
68366;BME280;55283;51.466;5.478;2023-03-22T07:31:06;100583.19;;;20.41;41.98
68366;BME280;55283;51.466;5.478;2023-03-22T07:33:34;100572.41;;;20.27;42.64
68366;BME280;55283;51.466;5.478;2023-03-22T07:35:59;100558.19;;;20.21;43.07
68366;BME280;55283;51.466;5.478;2023-03-22T07:38:25;100589.31;;;20.23;42.25
68366;BME280;55283;51.466;5.478;2023-03-22T07:40:53;100563.00;;;20.21;41.82
68366;BME280;55283;51.466;5.478;2023-03-22T07:43:20;100574.31;;;20.17;41.32
68366;BME280;55283;51.466;5.478;2023-03-22T07:45:47;100562.88;;;20.11;40.89
68366;BME280;55283;51.466;5.478;2023-03-22T07:48:13;100579.31;;;20.09;40.91
68366;BME280;55283;51.466;5.478;2023-03-22T07:50:38;100563.53;;;20.03;41.23
68366;BME280;55283;51.466;5.478;2023-03-22T07:53:04;100578.19;;;20.07;40.78
68366;BME280;55283;51.466;5.478;2023-03-22T07:55:32;100575.09;;;20.05;41.50
68366;BME280;55283;51.466;5.478;2023-03-22T07:57:57;100545.84;;;20.06;40.88
68366;BME280;55283;51.466;5.478;2023-03-22T08:00:23;100585.81;;;20.06;41.13
68366;BME280;55283;51.466;5.478;2023-03-22T08:02:48;100572.94;;;20.09;41.60
68366;BME280;55283;51.466;5.478;2023-03-22T08:05:16;100565.69;;;20.11;41.63
68366;BME280;55283;51.466;5.478;2023-03-22T08:07:45;100569.59;;;20.14;42.30
68366;BME280;55283;51.466;5.478;2023-03-22T08:10:13;100560.19;;;20.21;42.68
68366;BME280;55283;51.466;5.478;2023-03-22T08:12:41;100563.66;;;20.25;43.22
68366;BME280;55283;51.466;5.478;2023-03-22T08:15:10;100564.13;;;20.23;43.43
68366;BME280;55283;51.466;5.478;2023-03-22T08:17:38;100574.31;;;20.30;43.17
68366;BME280;55283;51.466;5.478;2023-03-22T08:20:04;100591.22;;;20.26;43.39
68366;BME280;55283;51.466;5.478;2023-03-22T08:22:36;100582.59;;;20.33;43.31
68366;BME280;55283;51.466;5.478;2023-03-22T08:25:05;100591.47;;;20.32;43.34
68366;BME280;55283;51.466;5.478;2023-03-22T08:27:31;100585.66;;;20.39;43.50
68366;BME280;55283;51.466;5.478;2023-03-22T08:29:59;100602.44;;;20.39;43.24
68366;BME280;55283;51.466;5.478;2023-03-22T08:32:25;100576.56;;;20.22;40.83
68366;BME280;55283;51.466;5.478;2023-03-22T08:34:50;100575.75;;;20.22;40.75
68366;BME280;55283;51.466;5.478;2023-03-22T08:37:17;100588.53;;;20.23;40.58
68366;BME280;55283;51.466;5.478;2023-03-22T08:39:44;100571.06;;;20.19;40.43
68366;BME280;55283;51.466;5.478;2023-03-22T08:42:12;100571.94;;;20.16;40.51
68366;BME280;55283;51.466;5.478;2023-03-22T08:44:37;100560.44;;;20.13;39.55
68366;BME280;55283;51.466;5.478;2023-03-22T08:47:03;100553.78;;;20.07;38.94
68366;BME280;55283;51.466;5.478;2023-03-22T08:49:28;100622.97;;;20.07;39.12
68366;BME280;55283;51.466;5.478;2023-03-22T08:51:56;100561.19;;;20.01;38.50
68366;BME280;55283;51.466;5.478;2023-03-22T08:54:24;100566.09;;;19.97;39.23
68366;BME280;55283;51.466;5.478;2023-03-22T08:56:52;100556.94;;;19.97;38.23
68366;BME280;55283;51.466;5.478;2023-03-22T08:59:23;100566.78;;;20.01;38.71
68366;BME280;55283;51.466;5.478;2023-03-22T09:01:48;100560.28;;;20.04;38.62
68366;BME280;55283;51.466;5.478;2023-03-22T09:04:17;100560.41;;;20.01;38.54
68366;BME280;55283;51.466;5.478;2023-03-22T09:06:42;100564.44;;;20.00;38.25
68366;BME280;55283;51.466;5.478;2023-03-22T09:09:10;100558.94;;;19.96;37.87
68366;BME280;55283;51.466;5.478;2023-03-22T09:11:36;100554.03;;;20.00;38.42
68366;BME280;55283;51.466;5.478;2023-03-22T09:14:02;100554.59;;;20.08;38.48
68366;BME280;55283;51.466;5.478;2023-03-22T09:16:33;100543.97;;;20.16;38.92
68366;BME280;55283;51.466;5.478;2023-03-22T09:18:59;100547.44;;;20.20;38.99
68366;BME280;55283;51.466;5.478;2023-03-22T09:21:25;100544.66;;;20.20;39.25
68366;BME280;55283;51.466;5.478;2023-03-22T09:23:51;100538.47;;;20.25;39.76
68366;BME280;55283;51.466;5.478;2023-03-22T09:26:16;100539.94;;;20.29;39.86
68366;BME280;55283;51.466;5.478;2023-03-22T09:28:45;100544.31;;;20.30;40.00
68366;BME280;55283;51.466;5.478;2023-03-22T09:31:10;100531.53;;;20.29;40.13
68366;BME280;55283;51.466;5.478;2023-03-22T09:33:37;100526.59;;;20.33;40.34
68366;BME280;55283;51.466;5.478;2023-03-22T09:36:03;100542.53;;;20.37;40.43
68366;BME280;55283;51.466;5.478;2023-03-22T09:38:29;100535.34;;;20.35;40.58
68366;BME280;55283;51.466;5.478;2023-03-22T09:41:00;100534.13;;;20.37;40.60
68366;BME280;55283;51.466;5.478;2023-03-22T09:43:31;100550.94;;;20.37;40.85
68366;BME280;55283;51.466;5.478;2023-03-22T09:46:01;100536.13;;;20.36;40.99
68366;BME280;55283;51.466;5.478;2023-03-22T09:48:31;100528.19;;;20.34;41.05
68366;BME280;55283;51.466;5.478;2023-03-22T09:51:05;100538.94;;;20.36;41.10
68366;BME280;55283;51.466;5.478;2023-03-22T09:53:32;100531.25;;;20.40;41.14
68366;BME280;55283;51.466;5.478;2023-03-22T09:56:12;100534.47;;;20.39;41.65
68366;BME280;55283;51.466;5.478;2023-03-22T09:59:12;100531.47;;;20.46;41.53
68366;BME280;55283;51.466;5.478;2023-03-22T10:01:59;100544.56;;;20.49;41.91
68366;BME280;55283;51.466;5.478;2023-03-22T10:04:34;100522.28;;;20.45;41.75
68366;BME280;55283;51.466;5.478;2023-03-22T10:07:17;100531.13;;;20.44;42.21
68366;BME280;55283;51.466;5.478;2023-03-22T10:10:12;100536.28;;;20.45;42.08
68366;BME280;55283;51.466;5.478;2023-03-22T10:12:45;100547.16;;;20.43;42.33
68366;BME280;55283;51.466;5.478;2023-03-22T10:15:28;100529.22;;;20.41;42.58
68366;BME280;55283;51.466;5.478;2023-03-22T10:17:57;100525.66;;;20.40;42.67
68366;BME280;55283;51.466;5.478;2023-03-22T10:23:09;100533.59;;;20.42;42.71
68366;BME280;55283;51.466;5.478;2023-03-22T10:25:39;100536.84;;;20.40;42.81
68366;BME280;55283;51.466;5.478;2023-03-22T10:28:15;100526.88;;;20.39;42.72
68366;BME280;55283;51.466;5.478;2023-03-22T10:30:44;100535.16;;;20.43;42.41
68366;BME280;55283;51.466;5.478;2023-03-22T10:33:39;100543.09;;;20.44;42.66
68366;BME280;55283;51.466;5.478;2023-03-22T10:36:14;100540.66;;;20.46;42.73
68366;BME280;55283;51.466;5.478;2023-03-22T10:39:20;100553.88;;;20.46;42.75
68366;BME280;55283;51.466;5.478;2023-03-22T10:41:53;100551.84;;;20.46;42.93
68366;BME280;55283;51.466;5.478;2023-03-22T10:44:19;100539.09;;;20.45;42.79
68366;BME280;55283;51.466;5.478;2023-03-22T10:46:47;100554.66;;;20.46;42.93
68366;BME280;55283;51.466;5.478;2023-03-22T10:49:26;100552.50;;;20.50;43.00
68366;BME280;55283;51.466;5.478;2023-03-22T10:51:55;100550.50;;;20.51;42.70
68366;BME280;55283;51.466;5.478;2023-03-22T10:54:23;100545.22;;;20.53;42.70
68366;BME280;55283;51.466;5.478;2023-03-22T10:56:49;100548.81;;;20.53;42.84
68366;BME280;55283;51.466;5.478;2023-03-22T10:59:42;100540.88;;;20.52;43.08
68366;BME280;55283;51.466;5.478;2023-03-22T11:02:19;100542.91;;;20.51;42.72
68366;BME280;55283;51.466;5.478;2023-03-22T11:04:49;100546.00;;;20.53;43.03
68366;BME280;55283;51.466;5.478;2023-03-22T11:07:26;100545.34;;;20.49;43.05
68366;BME280;55283;51.466;5.478;2023-03-22T11:12:52;100548.16;;;20.49;43.30
68366;BME280;55283;51.466;5.478;2023-03-22T11:15:30;100545.00;;;20.47;43.29
68366;BME280;55283;51.466;5.478;2023-03-22T11:18:09;100546.38;;;20.43;43.39
68366;BME280;55283;51.466;5.478;2023-03-22T11:20:39;100557.56;;;20.43;43.56
68366;BME280;55283;51.466;5.478;2023-03-22T11:23:09;100543.56;;;20.43;43.79
68366;BME280;55283;51.466;5.478;2023-03-22T11:25:37;100541.97;;;20.42;43.83
68366;BME280;55283;51.466;5.478;2023-03-22T11:28:16;100535.06;;;20.46;43.87
68366;BME280;55283;51.466;5.478;2023-03-22T11:31:00;100554.66;;;20.46;43.86
68366;BME280;55283;51.466;5.478;2023-03-22T11:33:25;100540.53;;;20.50;43.75
68366;BME280;55283;51.466;5.478;2023-03-22T11:35:58;100543.66;;;20.52;44.17
68366;BME280;55283;51.466;5.478;2023-03-22T11:38:37;100544.22;;;20.47;44.99
68366;BME280;55283;51.466;5.478;2023-03-22T11:41:20;100545.69;;;20.51;44.41
68366;BME280;55283;51.466;5.478;2023-03-22T11:43:49;100550.16;;;20.62;44.58
68366;BME280;55283;51.466;5.478;2023-03-22T11:46:19;100543.44;;;20.59;44.50
68366;BME280;55283;51.466;5.478;2023-03-22T11:48:48;100530.66;;;20.58;45.14
68366;BME280;55283;51.466;5.478;2023-03-22T11:51:16;100546.69;;;20.57;44.77
68366;BME280;55283;51.466;5.478;2023-03-22T11:53:45;100537.94;;;20.55;44.62
68366;BME280;55283;51.466;5.478;2023-03-22T11:56:16;100534.38;;;20.55;44.45
68366;BME280;55283;51.466;5.478;2023-03-22T12:01:23;100545.44;;;20.58;44.88
68366;BME280;55283;51.466;5.478;2023-03-22T12:03:55;100537.50;;;20.57;44.29
68366;BME280;55283;51.466;5.478;2023-03-22T12:06:24;100533.59;;;20.54;44.63
68366;BME280;55283;51.466;5.478;2023-03-22T12:12:00;100523.94;;;20.55;44.48
68366;BME280;55283;51.466;5.478;2023-03-22T12:14:29;100525.06;;;20.58;44.63
68366;BME280;55283;51.466;5.478;2023-03-22T12:17:46;100510.94;;;20.62;44.86
68366;BME280;55283;51.466;5.478;2023-03-22T12:22:53;100511.84;;;20.58;44.81
68366;BME280;55283;51.466;5.478;2023-03-22T12:25:33;100512.97;;;20.61;45.07
68366;BME280;55283;51.466;5.478;2023-03-22T12:28:07;100507.25;;;20.65;45.10
68366;BME280;55283;51.466;5.478;2023-03-22T12:30:39;100500.44;;;20.66;44.83
68366;BME280;55283;51.466;5.478;2023-03-22T12:33:23;100505.22;;;20.65;45.13
68366;BME280;55283;51.466;5.478;2023-03-22T12:36:00;100510.03;;;20.65;45.20
68366;BME280;55283;51.466;5.478;2023-03-22T12:38:44;100505.22;;;20.65;45.09
68366;BME280;55283;51.466;5.478;2023-03-22T12:41:19;100508.03;;;20.65;45.16
68366;BME280;55283;51.466;5.478;2023-03-22T12:43:55;100508.81;;;20.66;44.95
68366;BME280;55283;51.466;5.478;2023-03-22T12:46:58;100496.03;;;20.65;45.27
68366;BME280;55283;51.466;5.478;2023-03-22T12:52:34;100509.91;;;20.68;44.95
68366;BME280;55283;51.466;5.478;2023-03-22T12:55:10;100509.25;;;20.64;45.05
68366;BME280;55283;51.466;5.478;2023-03-22T12:57:44;100511.28;;;20.64;45.00
68366;BME280;55283;51.466;5.478;2023-03-22T13:00:16;100500.09;;;20.64;45.09
68366;BME280;55283;51.466;5.478;2023-03-22T13:02:57;100510.50;;;20.63;45.01
68366;BME280;55283;51.466;5.478;2023-03-22T13:05:31;100504.91;;;20.63;45.09
68366;BME280;55283;51.466;5.478;2023-03-22T13:08:00;100512.50;;;20.63;45.12
68366;BME280;55283;51.466;5.478;2023-03-22T13:15:35;100502.53;;;20.62;44.97
68366;BME280;55283;51.466;5.478;2023-03-22T13:19:16;100494.00;;;20.65;45.11
68366;BME280;55283;51.466;5.478;2023-03-22T13:24:18;100491.47;;;20.58;44.98
68366;BME280;55283;51.466;5.478;2023-03-22T13:26:51;100507.03;;;20.59;44.94
68366;BME280;55283;51.466;5.478;2023-03-22T13:32:02;100502.88;;;20.64;45.02
68366;BME280;55283;51.466;5.478;2023-03-22T13:34:51;100497.72;;;20.62;44.96
68366;BME280;55283;51.466;5.478;2023-03-22T13:37:36;100497.41;;;20.60;44.86
68366;BME280;55283;51.466;5.478;2023-03-22T13:40:25;100491.00;;;20.60;44.96
68366;BME280;55283;51.466;5.478;2023-03-22T13:42:52;100503.31;;;20.62;45.02
68366;BME280;55283;51.466;5.478;2023-03-22T13:45:33;100495.69;;;20.63;44.96
68366;BME280;55283;51.466;5.478;2023-03-22T13:48:51;100491.47;;;20.58;44.84
68366;BME280;55283;51.466;5.478;2023-03-22T13:50:51;100488.31;;;20.56;45.07
68366;BME280;55283;51.466;5.478;2023-03-22T13:53:29;100487.88;;;20.57;45.00
68366;BME280;55283;51.466;5.478;2023-03-22T14:01:05;100489.78;;;20.61;44.98
68366;BME280;55283;51.466;5.478;2023-03-22T14:03:35;100483.41;;;20.60;45.20
68366;BME280;55283;51.466;5.478;2023-03-22T14:06:17;100489.44;;;20.58;45.27
68366;BME280;55283;51.466;5.478;2023-03-22T14:08:48;100481.81;;;20.59;45.23
68366;BME280;55283;51.466;5.478;2023-03-22T14:11:28;100478.25;;;20.58;45.18
68366;BME280;55283;51.466;5.478;2023-03-22T14:14:19;100483.84;;;20.58;45.07
68366;BME280;55283;51.466;5.478;2023-03-22T14:20:16;100490.69;;;20.57;44.97